createdAt,value
2022-10-06T00:01:10.834Z,1.30
2022-10-06T00:03:45.591Z,1.13
2022-10-06T00:06:20.099Z,0.80
2022-10-06T00:08:53.475Z,0.67
2022-10-06T00:11:26.773Z,0.67
2022-10-06T00:14:00.402Z,0.47
2022-10-06T00:16:35.325Z,0.70
2022-10-06T00:19:08.844Z,0.83
2022-10-06T00:21:42.668Z,0.80
2022-10-06T00:24:16.198Z,1.00
2022-10-06T00:26:49.491Z,0.73
2022-10-06T00:29:22.765Z,0.90
2022-10-06T00:31:57.500Z,0.80
2022-10-06T00:34:30.801Z,0.80
2022-10-06T00:37:04.212Z,0.90
2022-10-06T00:39:37.572Z,0.97
2022-10-06T00:42:24.383Z,0.90
2022-10-06T00:45:01.844Z,0.87
2022-10-06T00:47:36.927Z,1.00
2022-10-06T13:08:01.180Z,1.13
2022-10-06T13:10:35.517Z,1.00
2022-10-06T13:13:24.309Z,1.10
2022-10-06T13:16:00.707Z,1.00
2022-10-06T13:18:34.239Z,1.07
2022-10-06T13:21:16.334Z,1.03
2022-10-06T13:23:52.372Z,1.27
2022-10-06T13:26:29.407Z,1.10
2022-10-06T13:29:31.810Z,1.60
2022-10-06T13:32:17.978Z,1.17
2022-10-06T13:34:51.570Z,1.10
2022-10-06T13:37:25.236Z,1.10
2022-10-06T13:40:01.007Z,1.27
2022-10-06T13:42:35.107Z,1.13
2022-10-06T13:45:16.009Z,1.40
2022-10-06T13:48:19.298Z,1.10
2022-10-06T13:50:54.307Z,1.23
2022-10-06T13:53:31.684Z,0.97
2022-10-06T13:56:06.876Z,0.90
2022-10-06T13:58:40.441Z,1.20
2022-10-06T14:01:13.755Z,0.90
2022-10-06T14:03:47.163Z,1.20
2022-10-06T14:06:25.014Z,1.10
2022-10-06T14:09:02.217Z,1.10
2022-10-06T14:11:36.928Z,1.03
2022-10-06T14:14:18.420Z,1.07
2022-10-06T14:16:53.932Z,1.00
2022-10-06T14:19:39.001Z,0.90
2022-10-06T14:22:32.464Z,1.03
2022-10-06T14:25:15.801Z,0.87
2022-10-06T14:27:52.063Z,0.90
2022-10-06T14:30:25.424Z,0.93
2022-10-06T14:32:58.880Z,0.97
2022-10-06T14:35:32.545Z,1.20
2022-10-06T14:38:05.997Z,1.30
2022-10-06T14:40:42.505Z,1.20
2022-10-06T14:43:17.326Z,1.20
2022-10-06T14:45:51.105Z,1.20
2022-10-06T14:48:24.721Z,1.30
2022-10-06T14:50:58.002Z,0.97
2022-10-06T14:53:32.271Z,1.17
2022-10-06T14:56:09.090Z,1.10
2022-10-06T14:58:45.811Z,1.00
2022-10-06T15:01:22.315Z,1.20
2022-10-06T15:03:58.516Z,1.07
2022-10-06T15:06:49.445Z,1.40
2022-10-06T15:09:23.772Z,1.23
2022-10-06T15:11:57.657Z,1.20
2022-10-06T15:14:33.558Z,1.20
2022-10-06T15:17:07.216Z,1.40
2022-10-06T15:19:40.909Z,0.90
2022-10-06T15:22:14.158Z,1.40
2022-10-06T15:24:51.370Z,1.40
2022-10-06T15:27:42.786Z,1.00
2022-10-06T15:30:17.611Z,1.20
2022-10-06T15:32:51.108Z,1.13
2022-10-06T15:35:24.478Z,1.40
2022-10-06T15:37:57.875Z,1.00
2022-10-06T15:40:31.334Z,1.20
2022-10-06T15:43:04.649Z,1.13
2022-10-06T15:45:39.552Z,1.57
2022-10-06T15:48:13.117Z,1.17
2022-10-06T15:50:46.712Z,1.23
2022-10-06T15:53:22.586Z,1.10
2022-10-06T15:55:58.197Z,1.03
2022-10-06T15:58:31.973Z,1.40
2022-10-06T16:01:08.856Z,0.93
2022-10-06T16:03:44.334Z,1.10
2022-10-06T16:06:17.769Z,1.20
2022-10-06T16:08:51.245Z,1.27
2022-10-06T16:11:24.733Z,1.23
2022-10-06T16:13:58.065Z,1.00
2022-10-06T16:16:33.439Z,1.30
2022-10-06T16:19:06.904Z,1.03
2022-10-06T16:21:41.392Z,1.33
2022-10-06T16:24:14.624Z,1.17
2022-10-06T16:26:50.099Z,1.00
2022-10-06T16:29:24.147Z,0.90
2022-10-06T16:31:59.706Z,0.90
2022-10-06T16:34:33.414Z,0.87
2022-10-06T16:37:06.824Z,0.80
2022-10-06T16:39:40.258Z,0.97
2022-10-06T16:42:13.703Z,1.03
2022-10-06T16:44:46.965Z,1.00
2022-10-06T16:47:21.682Z,1.33
2022-10-06T16:49:55.116Z,0.93
2022-10-06T16:52:28.594Z,0.97
2022-10-06T16:55:02.858Z,1.00
2022-10-06T16:57:36.234Z,1.00
2022-10-06T17:00:12.191Z,1.13
2022-10-06T17:02:47.436Z,1.40
2022-10-06T17:05:20.866Z,1.00
2022-10-06T17:07:58.407Z,1.03
2022-10-06T17:10:32.333Z,0.87
2022-10-06T17:13:05.937Z,1.03
2022-10-06T17:15:39.299Z,1.30
2022-10-06T17:18:14.275Z,1.53
2022-10-06T17:20:56.088Z,1.47
2022-10-06T17:23:30.775Z,1.40
2022-10-06T17:26:12.469Z,1.43
2022-10-06T17:28:47.436Z,1.63
2022-10-06T17:31:23.728Z,1.20
2022-10-06T17:33:58.703Z,1.50
2022-10-06T17:36:32.415Z,1.43
2022-10-06T17:39:07.726Z,1.40
2022-10-06T17:41:43.131Z,1.33
2022-10-06T17:44:22.807Z,1.10
2022-10-06T17:46:59.299Z,1.20
2022-10-06T17:49:35.236Z,0.90
2022-10-06T17:52:08.848Z,1.57
2022-10-06T17:54:43.195Z,1.20
2022-10-06T17:57:16.739Z,1.50
2022-10-06T17:59:50.018Z,1.50
2022-10-06T18:02:23.599Z,1.50
2022-10-06T18:04:58.413Z,1.10
2022-10-06T18:07:31.878Z,1.40
2022-10-06T18:10:23.313Z,1.50
2022-10-06T18:12:56.661Z,1.50
2022-10-06T18:15:31.753Z,1.67
2022-10-06T18:18:05.925Z,1.60
2022-10-06T18:20:41.814Z,1.33
2022-10-06T18:23:15.511Z,1.50
2022-10-06T18:25:48.801Z,1.53
2022-10-06T18:28:22.213Z,2.00
2022-10-06T18:30:55.663Z,1.67
2022-10-06T18:36:24.484Z,1.30
2022-10-06T18:39:00.150Z,1.40
2022-10-06T18:41:33.610Z,1.30
2022-10-06T18:44:07.750Z,1.67
2022-10-06T18:46:58.923Z,1.67
2022-10-06T18:49:33.402Z,1.40
2022-10-06T18:52:08.437Z,1.40
2022-10-06T18:54:44.527Z,1.60
2022-10-06T18:57:18.048Z,1.10
2022-10-06T18:59:51.393Z,1.33
2022-10-06T19:02:26.335Z,1.60
2022-10-06T19:05:00.037Z,1.60
2022-10-06T19:07:34.733Z,1.63
2022-10-06T19:10:08.836Z,1.20
2022-10-06T19:12:42.227Z,1.20
2022-10-06T19:15:20.428Z,1.53
2022-10-06T19:17:55.363Z,1.90
2022-10-06T19:20:28.669Z,1.40
2022-10-06T19:23:04.341Z,1.40
2022-10-06T19:25:37.818Z,1.43
2022-10-06T19:28:11.158Z,1.53
2022-10-06T19:30:44.486Z,1.50
2022-10-06T19:33:17.854Z,1.90
2022-10-06T19:35:53.121Z,1.77
2022-10-06T19:38:29.267Z,1.73
2022-10-06T19:41:17.260Z,1.60
2022-10-06T19:43:51.361Z,2.30
2022-10-06T19:46:24.813Z,2.17
2022-10-06T19:49:05.427Z,1.90
2022-10-06T19:51:40.375Z,2.30
2022-10-06T19:54:15.356Z,1.93
2022-10-06T19:56:49.357Z,2.40
2022-10-06T19:59:23.433Z,2.13
2022-10-06T20:01:57.030Z,1.70
2022-10-06T20:04:30.643Z,1.70
2022-10-06T20:07:04.744Z,1.57
2022-10-06T20:09:39.923Z,1.47
2022-10-06T20:12:13.738Z,1.70
2022-10-06T20:14:47.237Z,1.60
2022-10-06T20:17:21.107Z,1.57
2022-10-06T20:19:57.875Z,1.37
2022-10-06T20:22:31.789Z,1.50
2022-10-06T20:25:07.422Z,1.63
2022-10-06T20:27:41.142Z,1.30
2022-10-06T20:30:14.735Z,1.60
2022-10-06T20:32:48.004Z,1.30
2022-10-06T20:35:21.287Z,1.30
2022-10-06T20:37:54.907Z,1.60
2022-10-06T20:40:42.718Z,1.50
2022-10-06T20:43:16.890Z,1.43
2022-10-06T20:45:50.296Z,1.53
2022-10-06T20:48:29.528Z,1.63
2022-10-06T20:51:02.914Z,1.70
2022-10-06T20:53:36.403Z,1.50
2022-10-06T20:56:11.454Z,1.50
2022-10-06T20:58:45.258Z,1.20
2022-10-06T21:01:21.811Z,1.27
2022-10-06T21:03:55.709Z,1.47
2022-10-06T21:06:30.420Z,1.53
2022-10-06T21:09:03.865Z,1.40
2022-10-06T21:11:38.637Z,1.30
2022-10-06T21:14:13.378Z,1.43
2022-10-06T21:16:49.852Z,1.80
2022-10-06T21:19:23.947Z,1.43
2022-10-06T21:21:57.248Z,1.40
2022-10-06T21:24:30.671Z,1.43
2022-10-06T21:27:05.422Z,1.60
2022-10-06T21:29:39.025Z,1.73
2022-10-06T21:32:12.485Z,1.67
2022-10-06T21:34:45.734Z,1.30
2022-10-06T21:37:19.141Z,1.60
2022-10-06T21:39:52.742Z,1.83
2022-10-06T21:42:27.648Z,2.10
2022-10-06T21:45:00.944Z,2.20
2022-10-06T21:47:34.621Z,1.43
2022-10-06T21:50:09.246Z,1.80
2022-10-06T21:52:42.460Z,2.07
2022-10-06T21:55:15.891Z,1.90
2022-10-06T21:57:50.721Z,1.33
2022-10-06T22:00:24.417Z,1.67
2022-10-06T22:02:57.751Z,1.50
2022-10-06T22:05:31.020Z,1.87
2022-10-06T22:08:04.286Z,1.60
2022-10-06T22:10:37.722Z,1.43
2022-10-06T22:13:12.345Z,1.70
2022-10-06T22:15:45.865Z,1.77
2022-10-06T22:18:19.183Z,1.50
2022-10-06T22:20:53.762Z,1.57
2022-10-06T22:23:27.224Z,1.53
2022-10-06T22:26:00.581Z,1.63
2022-10-06T22:28:35.357Z,1.63
2022-10-06T22:31:12.405Z,1.60
2022-10-06T22:33:50.652Z,1.40
2022-10-06T22:36:24.442Z,1.73
2022-10-06T22:38:58.571Z,1.63
2022-10-06T22:41:32.162Z,1.70
2022-10-06T22:44:07.133Z,1.70
2022-10-06T22:46:40.915Z,1.43
2022-10-06T22:49:14.693Z,1.80
2022-10-06T22:51:48.273Z,2.00
2022-10-06T22:54:22.428Z,2.10
2022-10-06T22:56:56.191Z,2.03
2022-10-06T22:59:30.951Z,2.23
2022-10-06T23:02:04.524Z,1.90
2022-10-06T23:04:37.891Z,2.00
2022-10-06T23:07:11.330Z,2.23
2022-10-06T23:09:44.625Z,2.17
2022-10-06T23:12:18.516Z,1.97
2022-10-06T23:14:53.147Z,1.90
2022-10-06T23:17:26.737Z,2.03
2022-10-06T23:20:00.046Z,2.40
2022-10-06T23:22:33.519Z,2.03
2022-10-06T23:25:09.946Z,2.00
2022-10-06T23:27:43.471Z,1.80
2022-10-06T23:30:18.935Z,1.93
2022-10-06T23:32:52.556Z,2.00
2022-10-06T23:35:25.905Z,2.10
2022-10-06T23:37:59.294Z,1.63
2022-10-06T23:40:32.596Z,1.70
2022-10-06T23:43:06.096Z,2.00
2022-10-06T23:45:40.874Z,1.80
2022-10-06T23:48:14.572Z,1.90
2022-10-06T23:50:58.136Z,1.53
2022-10-06T23:53:33.057Z,1.60
2022-10-06T23:56:07.530Z,2.07
2022-10-06T23:58:41.696Z,1.93
